Al Hoceima, Morocco
Current Conditions -  °F | °C
As of 12:00 AM on Thursday 23 Oct 2014 (Local Time) from GMTA Reporting Station
Clear Clear  
Wind Chill: 64°   Ceiling: Unl
Heat Index: 64°   Visibility: 6mi
Dew Point: 52°   Wind: 2mph
Humidity: 64%   Direction: 180°S
Pressure: 30.12"   Gusts: NA
Location:  35.26°N, 3.94°W
Report Text: GMTA 222300Z 18002KT CAVOK 18/11 Q1020 NOSIG
Loading
Personal Weather Stations






























Interactive Weather Map
Tropical Storm Tracking
New forecast layout! Learn more

10-Day Weather Forecast

Advertisements
Track Severe Weather on mobile